createdAt,value
2022-12-07T00:02:38.924Z,0.98
2022-12-07T00:06:45.647Z,1.15
2022-12-07T00:10:47.057Z,0.96
2022-12-07T00:14:48.521Z,1.15
2022-12-07T00:18:49.987Z,0.92
2022-12-07T00:22:52.145Z,1.27
2022-12-07T00:26:53.630Z,1.17
2022-12-07T00:31:10.462Z,1.18
2022-12-07T00:35:11.895Z,0.96
2022-12-07T00:39:13.340Z,1.03
2022-12-07T00:43:14.742Z,0.80
2022-12-07T00:47:16.168Z,0.74
2022-12-07T00:51:19.411Z,0.79
2022-12-07T00:55:20.837Z,0.48
2022-12-07T00:59:22.244Z,0.52
2022-12-07T01:03:23.720Z,0.45
2022-12-07T01:07:25.217Z,0.56
2022-12-07T01:11:29.988Z,0.62
2022-12-07T01:15:31.481Z,0.39
2022-12-07T01:19:32.865Z,0.77
2022-12-07T01:23:35.696Z,0.54
2022-12-07T01:27:37.990Z,0.67
2022-12-07T01:31:39.429Z,0.77
2022-12-07T01:35:40.845Z,0.68
2022-12-07T01:39:42.768Z,0.61
2022-12-07T01:44:09.116Z,0.52
2022-12-07T01:48:14.679Z,0.56
2022-12-07T01:52:34.332Z,0.67
2022-12-07T01:56:37.024Z,0.45
2022-12-07T02:00:39.213Z,0.15
2022-12-07T02:04:40.777Z,0.23
2022-12-07T02:08:43.537Z,0.14
2022-12-07T02:12:53.234Z,0.16
2022-12-07T02:17:06.355Z,-0.07
2022-12-07T02:21:10.734Z,0.05
2022-12-07T02:25:30.320Z,0.11
2022-12-07T02:29:38.702Z,-0.05
2022-12-07T02:33:51.304Z,-0.09
2022-12-07T02:38:11.124Z,-0.18
2022-12-07T02:42:24.047Z,-0.37
2022-12-07T02:46:33.456Z,-0.40
2022-12-07T02:50:34.957Z,-0.32
2022-12-07T02:54:36.752Z,-0.27
2022-12-07T02:58:56.142Z,-0.22
2022-12-07T03:03:24.165Z,-0.19
2022-12-07T03:07:50.116Z,-0.11
2022-12-07T03:12:01.743Z,-0.20
2022-12-07T03:16:15.426Z,-0.15
2022-12-07T03:20:21.095Z,-0.14
2022-12-07T03:24:27.267Z,-0.13
2022-12-07T03:28:35.696Z,-0.16
2022-12-07T03:32:43.271Z,-0.17
2022-12-07T03:36:50.568Z,0.06
2022-12-07T03:40:59.877Z,-0.02
2022-12-07T03:45:03.622Z,0.03
2022-12-07T03:49:33.497Z,0.17
2022-12-07T03:53:53.548Z,0.15
2022-12-07T03:58:00.699Z,0.02
2022-12-07T04:02:05.904Z,0.22
2022-12-07T04:06:07.495Z,0.00
2022-12-07T04:10:09.416Z,0.11
2022-12-07T04:14:19.771Z,-0.08
2022-12-07T04:18:21.216Z,-0.07
2022-12-07T04:22:22.715Z,-0.03
2022-12-07T04:26:24.190Z,-0.15
2022-12-07T04:30:25.641Z,-0.28
2022-12-07T04:34:27.252Z,-0.16
2022-12-07T04:38:28.708Z,-0.16
2022-12-07T04:42:30.163Z,-0.17
2022-12-07T04:46:32.853Z,-0.07
2022-12-07T04:50:36.254Z,-0.19
2022-12-07T04:54:37.677Z,-0.09
2022-12-07T04:58:39.089Z,-0.06
2022-12-07T05:02:40.532Z,0.07
2022-12-07T05:06:41.967Z,0.03
2022-12-07T05:10:43.430Z,0.16
2022-12-07T05:14:44.902Z,0.20
2022-12-07T05:18:46.337Z,0.23
2022-12-07T05:22:48.169Z,0.17
2022-12-07T05:26:49.605Z,0.31
2022-12-07T05:30:54.445Z,0.32
2022-12-07T05:34:58.334Z,0.36
2022-12-07T05:39:00.975Z,0.34
2022-12-07T05:43:04.809Z,0.34
2022-12-07T05:47:06.636Z,0.45
2022-12-07T05:51:08.081Z,0.55
2022-12-07T05:55:09.603Z,0.45
2022-12-07T05:59:28.101Z,0.58
2022-12-07T06:03:29.660Z,0.49
2022-12-07T06:07:31.169Z,0.67
2022-12-07T06:11:51.539Z,0.74
2022-12-07T06:15:52.876Z,0.61
2022-12-07T06:19:54.347Z,0.67
2022-12-07T06:23:55.906Z,0.80
2022-12-07T06:27:57.309Z,0.92
2022-12-07T06:31:58.929Z,0.85
2022-12-07T06:36:00.460Z,0.94
2022-12-07T06:40:02.335Z,1.01
2022-12-07T06:44:05.778Z,1.10
2022-12-07T06:48:07.209Z,1.06
2022-12-07T06:52:08.764Z,1.21
2022-12-07T06:56:10.330Z,1.13
2022-12-07T07:00:15.651Z,1.19
2022-12-07T07:04:21.421Z,1.20
2022-12-07T07:08:23.947Z,1.24
2022-12-07T07:12:25.729Z,1.29
2022-12-07T07:16:27.218Z,1.40
2022-12-07T07:20:28.748Z,1.48
2022-12-07T07:24:30.587Z,1.58
2022-12-07T07:28:32.286Z,1.72
2022-12-07T07:32:33.900Z,1.83
2022-12-07T07:36:35.392Z,1.91
2022-12-07T07:40:37.694Z,1.91
2022-12-07T07:44:39.117Z,1.96
2022-12-07T07:48:40.584Z,1.96
2022-12-07T07:52:42.059Z,1.90
2022-12-07T07:56:43.488Z,2.02
2022-12-07T08:00:44.908Z,2.00
2022-12-07T08:04:47.072Z,2.05
2022-12-07T08:08:48.667Z,2.03
2022-12-07T08:13:08.729Z,1.90
2022-12-07T08:17:10.277Z,1.97
2022-12-07T08:21:15.057Z,2.11
2022-12-07T08:25:16.660Z,2.05
2022-12-07T08:29:18.866Z,2.13
2022-12-07T08:33:23.303Z,2.31
2022-12-07T08:37:27.345Z,2.50
2022-12-07T08:41:28.847Z,2.54
2022-12-07T08:45:33.191Z,2.51
2022-12-07T08:49:39.363Z,2.54
2022-12-07T08:53:42.084Z,2.33
2022-12-07T08:57:43.693Z,2.39
2022-12-07T09:01:45.155Z,2.33
2022-12-07T09:05:46.836Z,2.32
2022-12-07T09:09:48.292Z,2.32
2022-12-07T09:13:49.699Z,2.15
2022-12-07T09:17:51.119Z,2.18
2022-12-07T09:21:52.583Z,2.09
2022-12-07T09:25:54.041Z,2.25
2022-12-07T09:29:56.300Z,2.20
2022-12-07T09:33:59.919Z,2.05
2022-12-07T09:38:01.532Z,2.24
2022-12-07T09:42:04.814Z,2.32
2022-12-07T09:46:15.352Z,2.13
2022-12-07T09:50:26.186Z,2.35
2022-12-07T09:54:28.796Z,2.11
2022-12-07T09:58:32.430Z,2.11
2022-12-07T10:02:46.857Z,2.10
2022-12-07T10:06:49.162Z,2.09
2022-12-07T10:10:57.783Z,2.11
2022-12-07T10:15:08.238Z,1.97
2022-12-07T10:19:18.897Z,1.85
2022-12-07T10:23:20.325Z,1.99
2022-12-07T10:27:27.484Z,2.08
2022-12-07T10:31:29.495Z,2.00
2022-12-07T10:35:31.336Z,1.94
2022-12-07T10:39:45.712Z,2.15
2022-12-07T10:43:51.907Z,2.34
2022-12-07T10:48:25.510Z,2.56
2022-12-07T10:52:38.810Z,2.50
2022-12-07T10:57:13.220Z,2.15
2022-12-07T11:01:31.740Z,2.43
2022-12-07T11:06:04.377Z,2.16
2022-12-07T11:10:20.994Z,2.19
2022-12-07T11:14:57.095Z,2.34
2022-12-07T11:19:29.550Z,2.27
2022-12-07T11:24:11.259Z,2.29
2022-12-07T11:28:30.430Z,2.47
2022-12-07T11:32:43.820Z,2.32
2022-12-07T11:36:49.618Z,2.42
2022-12-07T11:40:56.733Z,2.35
2022-12-07T11:45:04.270Z,2.53
2022-12-07T11:49:38.242Z,2.51
2022-12-07T11:53:50.201Z,2.68
2022-12-07T11:57:59.577Z,2.73
2022-12-07T12:02:27.964Z,2.76
2022-12-07T12:06:29.438Z,2.69
2022-12-07T12:11:08.445Z,2.87
2022-12-07T12:15:29.576Z,2.60
2022-12-07T12:19:41.676Z,2.56
2022-12-07T12:23:55.359Z,2.60
2022-12-07T12:27:59.822Z,2.69
2022-12-07T12:32:07.302Z,2.81
2022-12-07T12:36:17.908Z,2.82
2022-12-07T12:40:22.383Z,2.80
2022-12-07T12:44:23.742Z,2.78
2022-12-07T12:48:37.796Z,3.11
2022-12-07T12:52:39.163Z,3.00
2022-12-07T12:56:49.781Z,2.91
2022-12-07T13:01:29.699Z,2.92
2022-12-07T13:05:32.511Z,3.20
2022-12-07T13:09:35.996Z,2.93
2022-12-07T13:13:37.615Z,3.06
2022-12-07T13:17:39.028Z,2.96
2022-12-07T13:21:44.412Z,2.99
2022-12-07T13:26:02.444Z,3.14
2022-12-07T13:30:23.407Z,2.97
2022-12-07T13:34:37.031Z,2.84
2022-12-07T13:38:39.394Z,2.88
2022-12-07T13:42:40.852Z,2.83
2022-12-07T13:46:52.347Z,2.81
2022-12-07T13:50:55.887Z,2.70
2022-12-07T13:55:17.409Z,2.68
2022-12-07T13:59:23.714Z,2.75
2022-12-07T14:03:32.099Z,2.77
2022-12-07T14:07:35.277Z,2.72
2022-12-07T14:11:38.342Z,2.69
2022-12-07T14:15:39.909Z,2.63
2022-12-07T14:19:49.054Z,2.78
2022-12-07T14:24:09.737Z,2.71
2022-12-07T14:28:25.549Z,2.80
2022-12-07T14:32:31.901Z,2.73
2022-12-07T14:36:33.335Z,2.75
2022-12-07T14:40:34.854Z,2.65
2022-12-07T14:44:36.319Z,2.45
2022-12-07T14:53:27.679Z,2.43
2022-12-07T14:57:29.169Z,2.44
2022-12-07T15:01:30.606Z,2.32
2022-12-07T15:05:32.272Z,2.33
2022-12-07T15:09:33.894Z,2.37
2022-12-07T15:13:53.852Z,2.26
2022-12-07T15:17:55.594Z,2.15
2022-12-07T15:21:58.468Z,2.03
2022-12-07T15:25:59.937Z,2.05
2022-12-07T15:30:01.511Z,2.09
2022-12-07T15:34:03.719Z,1.95
2022-12-07T15:38:05.284Z,1.83
2022-12-07T15:42:06.769Z,1.88
2022-12-07T15:46:08.455Z,1.75
2022-12-07T15:50:13.416Z,1.82
2022-12-07T15:54:20.497Z,1.82
2022-12-07T15:58:21.983Z,1.66
2022-12-07T16:02:24.435Z,1.72
2022-12-07T16:06:26.322Z,1.56
2022-12-07T16:10:27.787Z,1.58
2022-12-07T16:14:29.238Z,1.45
2022-12-07T16:18:31.126Z,1.43
2022-12-07T16:22:32.591Z,1.52
2022-12-07T16:26:34.094Z,1.61
2022-12-07T16:30:35.564Z,1.51
2022-12-07T16:34:37.107Z,1.52
2022-12-07T16:38:38.954Z,1.43
2022-12-07T16:42:40.393Z,1.46
2022-12-07T16:46:42.861Z,1.43
2022-12-07T16:50:50.884Z,1.49
2022-12-07T16:54:52.765Z,1.48
2022-12-07T16:58:54.228Z,1.35
2022-12-07T17:02:56.131Z,1.38
2022-12-07T17:06:58.322Z,1.36
2022-12-07T17:10:59.815Z,1.28
2022-12-07T17:15:21.628Z,1.28
2022-12-07T17:19:23.165Z,1.40
2022-12-07T17:23:26.043Z,1.43
2022-12-07T17:27:27.673Z,1.41
2022-12-07T17:31:29.399Z,1.19
2022-12-07T17:35:30.939Z,1.23
2022-12-07T17:39:32.388Z,1.21
2022-12-07T17:43:33.852Z,1.08
2022-12-07T17:47:39.395Z,1.09
2022-12-07T17:52:10.107Z,0.98
2022-12-07T17:56:28.245Z,0.93
2022-12-07T18:00:30.631Z,0.98
2022-12-07T18:04:32.952Z,0.87
2022-12-07T18:08:38.860Z,0.80
2022-12-07T18:12:40.580Z,0.75
2022-12-07T18:16:42.351Z,0.70
2022-12-07T18:20:44.464Z,0.72
2022-12-07T18:24:45.972Z,0.66
2022-12-07T18:28:47.589Z,0.59
2022-12-07T18:32:49.039Z,0.69
2022-12-07T18:36:51.280Z,0.75
2022-12-07T18:40:53.071Z,0.45
2022-12-07T18:44:54.558Z,0.53
2022-12-07T18:48:58.742Z,0.62
2022-12-07T18:53:01.784Z,0.63
2022-12-07T18:57:03.218Z,0.54
2022-12-07T19:01:04.936Z,0.58
2022-12-07T19:05:06.959Z,0.62
2022-12-07T19:09:08.774Z,0.70
2022-12-07T19:13:10.201Z,0.47
2022-12-07T19:17:13.862Z,0.37
2022-12-07T19:21:15.344Z,0.37
2022-12-07T19:25:17.093Z,0.35
2022-12-07T19:29:18.823Z,0.41
2022-12-07T19:33:20.335Z,0.35
2022-12-07T19:37:21.970Z,0.35
2022-12-07T19:41:35.467Z,0.38
2022-12-07T19:45:36.929Z,0.38
2022-12-07T19:49:38.403Z,0.41
2022-12-07T19:53:39.955Z,0.41
2022-12-07T19:57:41.391Z,0.40
2022-12-07T20:01:43.771Z,0.47
2022-12-07T20:05:45.395Z,0.26
2022-12-07T20:09:46.854Z,0.41
2022-12-07T20:13:48.491Z,0.23
2022-12-07T20:17:50.038Z,0.32
2022-12-07T20:21:51.846Z,0.24
2022-12-07T20:25:53.844Z,0.18
2022-12-07T20:29:55.620Z,0.20
2022-12-07T20:34:00.208Z,0.09
2022-12-07T20:38:01.965Z,0.12
2022-12-07T20:42:22.492Z,0.05
2022-12-07T20:46:24.510Z,0.01
2022-12-07T20:50:26.051Z,0.09
2022-12-07T20:54:27.545Z,-0.10
2022-12-07T20:58:29.060Z,-0.12
2022-12-07T21:02:30.651Z,0.03
2022-12-07T21:06:32.141Z,0.04
2022-12-07T21:10:35.876Z,-0.27
2022-12-07T21:14:41.541Z,-0.18
2022-12-07T21:18:45.217Z,-0.26
2022-12-07T21:22:47.884Z,-0.28
2022-12-07T21:26:52.301Z,-0.18
2022-12-07T21:31:14.548Z,-0.09
2022-12-07T21:35:16.402Z,-0.30
2022-12-07T21:39:17.986Z,-0.13
2022-12-07T21:43:19.420Z,-0.27
2022-12-07T21:47:20.834Z,-0.43
2022-12-07T21:51:23.569Z,-0.43
2022-12-07T21:55:25.021Z,-0.49
2022-12-07T21:59:26.507Z,-0.57
2022-12-07T22:03:28.102Z,-0.48
2022-12-07T22:07:29.657Z,-0.48
2022-12-07T22:11:31.234Z,-0.39
2022-12-07T22:15:32.686Z,-0.47
2022-12-07T22:19:34.173Z,-0.50
2022-12-07T22:23:35.712Z,-0.73
2022-12-07T22:27:37.964Z,-0.92
2022-12-07T22:31:41.276Z,-0.93
2022-12-07T22:35:42.908Z,-0.77
2022-12-07T22:39:44.568Z,-0.78
2022-12-07T22:43:46.092Z,-0.76
2022-12-07T22:47:48.042Z,-0.80
2022-12-07T22:51:49.687Z,-0.82
2022-12-07T22:55:52.247Z,-0.60
2022-12-07T22:59:54.337Z,-0.45
2022-12-07T23:03:55.935Z,-0.50
2022-12-07T23:07:57.735Z,-0.77
2022-12-07T23:12:17.869Z,-0.98
2022-12-07T23:16:19.592Z,-1.04
2022-12-07T23:20:21.099Z,-0.78
2022-12-07T23:24:22.562Z,-0.95
2022-12-07T23:28:23.976Z,-1.06
2022-12-07T23:32:25.440Z,-0.96
2022-12-07T23:36:28.141Z,-0.86
2022-12-07T23:40:29.643Z,-0.93
2022-12-07T23:44:31.077Z,-1.20
2022-12-07T23:48:32.509Z,-0.91
2022-12-07T23:52:33.964Z,-0.90
2022-12-07T23:56:35.454Z,-0.97
